Time;durP1;ratioP1;P1;durP2;ratioP2;P2;SDS_P1;SDS_P2;PMS_P1;PMS_P2;Temp;Humidity;BMP_temperature;BMP_pressure;BME280_temperature;BME280_humidity;BME280_pressure;Samples;Min_cycle;Max_cycle;Signal;HPM_P1;HPM_P2
2021/01/15 00:00:47;;;;;;;3.95;2.00;;;;;;;;;;5067155;28;20486;-55
2021/01/15 00:03:13;;;;;;;3.53;1.67;;;;;;;;;;5066246;28;20064;-54
2021/01/15 00:05:40;;;;;;;4.43;1.80;;;;;;;;;;5065902;28;20386;-55
2021/01/15 00:08:07;;;;;;;2.35;1.38;;;;;;;;;;5065878;28;20497;-55
2021/01/15 00:10:33;;;;;;;3.53;2.10;;;;;;;;;;5066673;28;20029;-55
2021/01/15 00:12:59;;;;;;;2.33;1.20;;;;;;;;;;5065637;28;20077;-55
2021/01/15 00:15:25;;;;;;;1.20;0.90;;;;;;;;;;5066323;28;20029;-55
2021/01/15 00:17:51;;;;;;;2.20;1.30;;;;;;;;;;5065223;28;20024;-56
2021/01/15 00:20:17;;;;;;;2.45;1.27;;;;;;;;;;5065828;28;20541;-56
2021/01/15 00:22:43;;;;;;;3.58;1.13;;;;;;;;;;5065904;28;20123;-52
2021/01/15 00:25:10;;;;;;;3.60;1.80;;;;;;;;;;5066314;28;20035;-55
2021/01/15 00:27:37;;;;;;;2.80;1.55;;;;;;;;;;5065255;28;20035;-55
2021/01/15 00:30:04;;;;;;;2.33;1.50;;;;;;;;;;5066103;28;20032;-54
2021/01/15 00:32:30;;;;;;;1.55;0.93;;;;;;;;;;5065713;28;20099;-55
2021/01/15 00:34:56;;;;;;;1.67;1.13;;;;;;;;;;5065280;28;20095;-54
2021/01/15 00:37:22;;;;;;;1.85;1.02;;;;;;;;;;5065248;28;20024;-50
2021/01/15 00:39:48;;;;;;;1.33;0.70;;;;;;;;;;5065893;28;20038;-55
2021/01/15 00:42:15;;;;;;;1.02;0.75;;;;;;;;;;5066224;28;20402;-55
2021/01/15 00:44:45;;;;;;;1.95;0.73;;;;;;;;;;5065131;28;20061;-55
2021/01/15 00:47:12;;;;;;;1.38;0.98;;;;;;;;;;5065219;28;20021;-55
2021/01/15 00:49:38;;;;;;;0.68;0.52;;;;;;;;;;5064891;28;20028;-55
2021/01/15 00:52:04;;;;;;;1.38;0.98;;;;;;;;;;5065947;28;20067;-56
2021/01/15 00:54:30;;;;;;;1.10;0.65;;;;;;;;;;5064586;28;20059;-53
2021/01/15 00:57:01;;;;;;;0.55;0.52;;;;;;;;;;5065343;28;20055;-53
2021/01/15 00:59:28;;;;;;;1.20;0.90;;;;;;;;;;5064902;28;20040;-53
2021/01/15 01:01:54;;;;;;;1.42;1.17;;;;;;;;;;5085079;28;20032;-55
2021/01/15 01:04:21;;;;;;;6.95;1.90;;;;;;;;;;5085139;28;20039;-55
2021/01/15 01:06:47;;;;;;;7.82;3.95;;;;;;;;;;5083964;28;20040;-53
2021/01/15 01:09:13;;;;;;;5.88;2.90;;;;;;;;;;5084248;28;20108;-55
2021/01/15 01:11:39;;;;;;;5.32;2.38;;;;;;;;;;5085211;28;20020;-55
2021/01/15 01:14:06;;;;;;;3.83;2.10;;;;;;;;;;5084429;28;20069;-54
2021/01/15 01:16:32;;;;;;;5.45;2.35;;;;;;;;;;5084220;28;20069;-54
2021/01/15 01:18:58;;;;;;;11.88;4.63;;;;;;;;;;5084835;28;20036;-54
2021/01/15 01:21:25;;;;;;;6.68;2.85;;;;;;;;;;5085945;28;20065;-54
2021/01/15 01:23:52;;;;;;;3.45;1.52;;;;;;;;;;5084498;28;20055;-54
2021/01/15 01:26:18;;;;;;;1.20;0.85;;;;;;;;;;5084858;28;20055;-54
2021/01/15 01:28:45;;;;;;;0.45;0.45;;;;;;;;;;5084504;28;20382;-54
2021/01/15 01:31:12;;;;;;;1.02;0.50;;;;;;;;;;5084999;28;20528;-55
2021/01/15 01:33:38;;;;;;;3.10;0.60;;;;;;;;;;5084333;28;20031;-54
2021/01/15 01:36:04;;;;;;;0.85;0.40;;;;;;;;;;5083833;28;20031;-55
2021/01/15 01:38:31;;;;;;;1.55;0.88;;;;;;;;;;5083810;28;20027;-54
2021/01/15 01:40:57;;;;;;;1.20;0.60;;;;;;;;;;5085750;28;20581;-55
2021/01/15 01:43:24;;;;;;;0.60;0.40;;;;;;;;;;5084653;28;20116;-55
2021/01/15 01:45:50;;;;;;;0.70;0.55;;;;;;;;;;5084407;28;20043;-54
2021/01/15 01:48:16;;;;;;;0.50;0.50;;;;;;;;;;5084023;28;20055;-54
2021/01/15 01:50:44;;;;;;;0.73;0.40;;;;;;;;;;5084557;28;20024;-54
2021/01/15 01:53:13;;;;;;;0.30;0.30;;;;;;;;;;5083765;28;20032;-54
2021/01/15 01:55:39;;;;;;;0.73;0.50;;;;;;;;;;5084808;28;20546;-54
2021/01/15 01:58:06;;;;;;;0.30;0.30;;;;;;;;;;5084189;28;20389;-54
2021/01/15 02:00:34;;;;;;;0.55;0.40;;;;;;;;;;5084874;28;20020;-53
2021/01/15 02:03:00;;;;;;;0.95;0.40;;;;;;;;;;5084177;28;20077;-55
2021/01/15 02:05:27;;;;;;;0.80;0.50;;;;;;;;;;5085092;28;20451;-53
2021/01/15 02:07:53;;;;;;;1.27;0.65;;;;;;;;;;5083803;28;20032;-55
2021/01/15 02:10:31;;;;;;;0.60;0.40;;;;;;;;;;5084649;28;20359;-54
2021/01/15 02:12:57;;;;;;;0.80;0.40;;;;;;;;;;5084462;28;20102;-54
2021/01/15 02:15:41;;;;;;;0.60;0.40;;;;;;;;;;5084517;28;20541;-54
2021/01/15 02:18:11;;;;;;;0.52;0.40;;;;;;;;;;5083047;28;20036;-54
2021/01/15 02:20:44;;;;;;;1.40;0.40;;;;;;;;;;5084998;28;20093;-54
2021/01/15 02:23:31;;;;;;;0.90;0.70;;;;;;;;;;5088150;28;20028;-54
2021/01/15 02:26:06;;;;;;;0.90;0.40;;;;;;;;;;5088875;28;20052;-54
2021/01/15 02:28:54;;;;;;;1.38;0.63;;;;;;;;;;5087978;28;20048;-54
2021/01/15 02:31:55;;;;;;;2.60;0.60;;;;;;;;;;5084189;28;20070;-53
2021/01/15 02:34:36;;;;;;;2.78;1.48;;;;;;;;;;5049257;28;20068;-55
2021/01/15 02:37:06;;;;;;;3.05;0.73;;;;;;;;;;5067569;28;20536;-55
2021/01/15 02:39:51;;;;;;;0.75;0.40;;;;;;;;;;5067625;28;20182;-53
2021/01/15 02:42:17;;;;;;;1.85;0.98;;;;;;;;;;5067973;28;20043;-54
2021/01/15 02:44:47;;;;;;;0.28;0.28;;;;;;;;;;5067597;28;20060;-53
2021/01/15 02:47:18;;;;;;;1.23;0.82;;;;;;;;;;5067511;28;20140;-54
2021/01/15 02:49:45;;;;;;;2.53;1.40;;;;;;;;;;5067708;28;20112;-55
2021/01/15 02:52:11;;;;;;;2.45;0.70;;;;;;;;;;5068267;28;20016;-53
2021/01/15 02:54:37;;;;;;;3.50;1.92;;;;;;;;;;5066846;28;20111;-54
2021/01/15 02:57:04;;;;;;;1.65;0.90;;;;;;;;;;5067353;28;20116;-53
2021/01/15 02:59:30;;;;;;;0.50;0.50;;;;;;;;;;5067228;28;20438;-53
2021/01/15 03:02:01;;;;;;;0.30;0.30;;;;;;;;;;5049977;28;20044;-54
2021/01/15 03:04:32;;;;;;;0.70;0.70;;;;;;;;;;5067715;28;20032;-54
2021/01/15 03:06:59;;;;;;;0.40;0.40;;;;;;;;;;5067853;28;20021;-53
2021/01/15 03:09:27;;;;;;;0.80;0.63;;;;;;;;;;5067821;28;20142;-54
2021/01/15 03:11:54;;;;;;;0.20;0.20;;;;;;;;;;5067244;28;20024;-52
2021/01/15 03:14:21;;;;;;;0.30;0.30;;;;;;;;;;5066998;28;20112;-54
2021/01/15 03:16:47;;;;;;;0.20;0.20;;;;;;;;;;5066986;28;20021;-54
2021/01/15 03:19:13;;;;;;;0.20;0.20;;;;;;;;;;5066937;28;20031;-54
2021/01/15 03:21:40;;;;;;;0.30;0.30;;;;;;;;;;5067220;28;20027;-53
2021/01/15 03:24:07;;;;;;;0.20;0.20;;;;;;;;;;5066872;28;20024;-55
2021/01/15 03:26:33;;;;;;;0.20;0.20;;;;;;;;;;5067255;28;20044;-53
2021/01/15 03:28:59;;;;;;;2.15;0.30;;;;;;;;;;5066743;28;20109;-54
2021/01/15 03:31:25;;;;;;;1.00;0.30;;;;;;;;;;5067809;28;20383;-53
2021/01/15 03:33:51;;;;;;;0.52;0.30;;;;;;;;;;5065396;28;20056;-52
2021/01/15 03:36:20;;;;;;;0.20;0.20;;;;;;;;;;5066588;28;20039;-54
2021/01/15 03:38:47;;;;;;;0.63;0.50;;;;;;;;;;5066565;28;20299;-51
2021/01/15 03:41:14;;;;;;;0.73;0.50;;;;;;;;;;5067059;28;20125;-50
2021/01/15 03:43:40;;;;;;;0.52;0.40;;;;;;;;;;5066388;28;20422;-53
2021/01/15 03:46:06;;;;;;;0.20;0.20;;;;;;;;;;5067005;28;20031;-53
2021/01/15 03:48:32;;;;;;;0.73;0.32;;;;;;;;;;5065354;28;20036;-54
2021/01/15 03:50:59;;;;;;;0.20;0.20;;;;;;;;;;5067216;28;20021;-53
2021/01/15 03:53:26;;;;;;;0.30;0.15;;;;;;;;;;5066586;28;20449;-53
2021/01/15 03:55:52;;;;;;;0.20;0.20;;;;;;;;;;5066485;28;20025;-51
2021/01/15 03:58:18;;;;;;;0.20;0.20;;;;;;;;;;5066208;28;20035;-54
2021/01/15 04:00:45;;;;;;;0.20;0.20;;;;;;;;;;5066245;28;20066;-55
2021/01/15 04:03:11;;;;;;;0.20;0.20;;;;;;;;;;5065808;28;20029;-51
2021/01/15 04:05:38;;;;;;;0.20;0.20;;;;;;;;;;5066249;28;20039;-55
2021/01/15 04:08:04;;;;;;;1.23;0.90;;;;;;;;;;5065918;28;20028;-52
2021/01/15 04:10:30;;;;;;;0.93;0.70;;;;;;;;;;5066435;28;20024;-53
2021/01/15 04:12:56;;;;;;;1.58;1.05;;;;;;;;;;5066423;28;20632;-53
2021/01/15 04:15:23;;;;;;;2.28;1.13;;;;;;;;;;5066484;28;20045;-51
2021/01/15 04:17:49;;;;;;;6.45;2.53;;;;;;;;;;5065337;28;20059;-53
2021/01/15 04:20:15;;;;;;;4.65;2.00;;;;;;;;;;5066265;28;20024;-54
2021/01/15 04:22:45;;;;;;;1.73;1.00;;;;;;;;;;5065423;28;20560;-54
2021/01/15 04:25:12;;;;;;;1.30;0.80;;;;;;;;;;5066287;28;20031;-52
2021/01/15 04:27:39;;;;;;;0.88;0.60;;;;;;;;;;5065265;28;20025;-55
2021/01/15 04:30:12;;;;;;;1.60;0.70;;;;;;;;;;5066081;28;20025;-50
2021/01/15 04:32:48;;;;;;;0.65;0.45;;;;;;;;;;5065464;28;20452;-53
2021/01/15 04:35:18;;;;;;;1.02;0.70;;;;;;;;;;5065648;28;20223;-51
2021/01/15 04:37:44;;;;;;;0.30;0.30;;;;;;;;;;5065140;28;20048;-54
2021/01/15 04:40:10;;;;;;;3.33;1.35;;;;;;;;;;5065810;28;20029;-51
2021/01/15 04:42:41;;;;;;;3.63;1.48;;;;;;;;;;5065117;28;20493;-53
2021/01/15 04:45:07;;;;;;;2.35;0.82;;;;;;;;;;5065919;28;20067;-52
2021/01/15 04:47:34;;;;;;;2.10;1.00;;;;;;;;;;5065107;28;20553;-52
2021/01/15 04:50:02;;;;;;;0.88;0.40;;;;;;;;;;5065682;28;20024;-52
2021/01/15 04:52:33;;;;;;;0.88;0.60;;;;;;;;;;5065382;28;20029;-54
2021/01/15 04:55:00;;;;;;;0.70;0.50;;;;;;;;;;5064757;28;20326;-50
2021/01/15 04:57:31;;;;;;;1.15;0.40;;;;;;;;;;5065916;28;20024;-53
2021/01/15 05:00:02;;;;;;;0.47;0.40;;;;;;;;;;5065695;28;20131;-51
2021/01/15 05:02:30;;;;;;;0.38;0.38;;;;;;;;;;5065561;28;20033;-50
2021/01/15 05:04:59;;;;;;;0.70;0.45;;;;;;;;;;5056535;28;20056;-50
2021/01/15 05:07:27;;;;;;;0.80;0.57;;;;;;;;;;5065651;28;20036;-53
2021/01/15 05:09:55;;;;;;;3.00;1.60;;;;;;;;;;5061514;28;20025;-53
2021/01/15 05:12:22;;;;;;;2.35;1.30;;;;;;;;;;5047047;28;20032;-52
2021/01/15 05:14:49;;;;;;;1.88;1.05;;;;;;;;;;5054723;28;20017;-53
2021/01/15 05:17:15;;;;;;;0.75;0.50;;;;;;;;;;5050258;28;20119;-53
2021/01/15 05:19:42;;;;;;;0.60;0.60;;;;;;;;;;5047470;28;20029;-52
2021/01/15 05:22:08;;;;;;;2.08;1.88;;;;;;;;;;5046684;28;20029;-53
2021/01/15 05:24:35;;;;;;;2.80;2.45;;;;;;;;;;5046636;28;20036;-52
2021/01/15 05:30:15;;;;;;;1.30;1.20;;;;;;;;;;5047250;28;20085;-50
2021/01/15 05:32:41;;;;;;;0.90;0.90;;;;;;;;;;5046069;28;20029;-53
2021/01/15 05:35:08;;;;;;;0.70;0.50;;;;;;;;;;5046241;28;20407;-51
2021/01/15 05:37:34;;;;;;;0.93;0.85;;;;;;;;;;5046048;28;20032;-52
2021/01/15 05:40:01;;;;;;;0.70;0.70;;;;;;;;;;5046299;28;20029;-50
2021/01/15 05:42:27;;;;;;;0.60;0.60;;;;;;;;;;5046640;28;20074;-50
2021/01/15 05:45:12;;;;;;;0.65;0.60;;;;;;;;;;5051313;28;20021;-53
2021/01/15 05:47:47;;;;;;;0.77;0.68;;;;;;;;;;5063308;28;20068;-52
2021/01/15 05:50:13;;;;;;;0.35;0.35;;;;;;;;;;5050685;28;20024;-53
2021/01/15 05:52:53;;;;;;;0.50;0.50;;;;;;;;;;5063444;28;20037;-50
2021/01/15 05:55:20;;;;;;;0.60;0.40;;;;;;;;;;5064262;28;20394;-51
2021/01/15 05:57:48;;;;;;;1.10;0.50;;;;;;;;;;5063912;28;20028;-50
2021/01/15 06:00:23;;;;;;;0.60;0.52;;;;;;;;;;5064391;28;20028;-52
2021/01/15 06:02:51;;;;;;;0.55;0.47;;;;;;;;;;5046088;28;20989;-49
2021/01/15 06:05:19;;;;;;;0.65;0.52;;;;;;;;;;5064282;28;20025;-52
2021/01/15 06:07:45;;;;;;;0.43;0.43;;;;;;;;;;5063642;28;20060;-50
2021/01/15 06:10:11;;;;;;;0.70;0.43;;;;;;;;;;5064462;28;20040;-49
2021/01/15 06:12:41;;;;;;;2.22;1.50;;;;;;;;;;5064161;28;20051;-50
2021/01/15 06:15:08;;;;;;;3.25;1.00;;;;;;;;;;5063638;28;20466;-49
2021/01/15 06:17:38;;;;;;;1.08;0.98;;;;;;;;;;5064043;28;20036;-50
2021/01/15 06:20:04;;;;;;;1.83;1.15;;;;;;;;;;5064531;28;20075;-50
2021/01/15 06:22:47;;;;;;;1.08;0.88;;;;;;;;;;5063972;28;20033;-51
2021/01/15 06:25:16;;;;;;;0.98;0.88;;;;;;;;;;5064271;28;20505;-51
2021/01/15 06:27:43;;;;;;;0.63;0.63;;;;;;;;;;5063367;28;20024;-51
2021/01/15 06:30:09;;;;;;;1.05;0.90;;;;;;;;;;5064040;28;20039;-50
2021/01/15 06:32:36;;;;;;;1.95;0.90;;;;;;;;;;5063603;28;20051;-51
2021/01/15 06:35:02;;;;;;;1.20;1.10;;;;;;;;;;5063992;28;20024;-51
2021/01/15 06:37:29;;;;;;;0.90;0.90;;;;;;;;;;5063977;28;20025;-52
2021/01/15 06:40:02;;;;;;;0.80;0.80;;;;;;;;;;5064430;28;20513;-51
2021/01/15 06:42:31;;;;;;;1.02;0.85;;;;;;;;;;5064715;28;20024;-51
2021/01/15 06:44:58;;;;;;;0.70;0.70;;;;;;;;;;5046329;28;20516;-52
2021/01/15 06:47:26;;;;;;;0.70;0.70;;;;;;;;;;5063752;28;20551;-50
2021/01/15 06:49:55;;;;;;;0.68;0.60;;;;;;;;;;5063496;28;20050;-50
2021/01/15 06:52:27;;;;;;;0.75;0.50;;;;;;;;;;5063549;28;20021;-50
2021/01/15 06:54:57;;;;;;;0.63;0.47;;;;;;;;;;5063165;28;20029;-54
2021/01/15 06:57:29;;;;;;;0.65;0.65;;;;;;;;;;5063765;28;20550;-53
2021/01/15 06:59:57;;;;;;;0.60;0.60;;;;;;;;;;5062328;28;20024;-50
2021/01/15 07:02:43;;;;;;;0.57;0.57;;;;;;;;;;5064119;28;20040;-49
2021/01/15 07:05:12;;;;;;;0.60;0.60;;;;;;;;;;5062807;28;20055;-51
2021/01/15 07:07:41;;;;;;;0.63;0.63;;;;;;;;;;5063874;28;20032;-50
2021/01/15 07:10:07;;;;;;;0.75;0.60;;;;;;;;;;5067280;28;20182;-49
2021/01/15 07:12:56;;;;;;;2.10;1.10;;;;;;;;;;5067576;28;20028;-53
2021/01/15 07:15:22;;;;;;;3.88;2.10;;;;;;;;;;5066324;28;20016;-51
2021/01/15 07:17:48;;;;;;;3.08;1.80;;;;;;;;;;5066175;28;20383;-53
2021/01/15 07:20:16;;;;;;;5.10;2.92;;;;;;;;;;5067339;28;20413;-50
2021/01/15 07:22:43;;;;;;;4.45;2.20;;;;;;;;;;5066421;28;20031;-50
2021/01/15 07:25:10;;;;;;;4.22;2.22;;;;;;;;;;5067330;28;20133;-49
2021/01/15 07:27:36;;;;;;;4.72;2.60;;;;;;;;;;5066313;28;20107;-51
2021/01/15 07:30:04;;;;;;;1.75;1.60;;;;;;;;;;5067564;28;20028;-52
2021/01/15 07:32:31;;;;;;;2.58;1.60;;;;;;;;;;5067501;28;20051;-51
2021/01/15 07:34:58;;;;;;;1.50;1.20;;;;;;;;;;5065840;28;20028;-50
2021/01/15 07:37:26;;;;;;;1.30;1.10;;;;;;;;;;5066509;28;20509;-51
2021/01/15 07:40:01;;;;;;;3.70;1.83;;;;;;;;;;5067942;28;20566;-53
2021/01/15 07:42:43;;;;;;;5.45;2.40;;;;;;;;;;5067557;28;20024;-54
2021/01/15 07:45:32;;;;;;;2.45;1.52;;;;;;;;;;5067322;28;20537;-51
2021/01/15 07:48:01;;;;;;;3.95;1.10;;;;;;;;;;5064723;28;20039;-53
2021/01/15 07:50:35;;;;;;;4.90;1.55;;;;;;;;;;5066644;28;20021;-50
2021/01/15 07:53:10;;;;;;;6.57;2.23;;;;;;;;;;5066656;28;20100;-52
2021/01/15 07:55:49;;;;;;;21.35;5.93;;;;;;;;;;5065911;28;20458;-51
2021/01/15 07:58:17;;;;;;;13.27;4.30;;;;;;;;;;5065585;28;20028;-51
2021/01/15 08:00:43;;;;;;;10.63;3.50;;;;;;;;;;5066210;28;20522;-51
2021/01/15 08:03:11;;;;;;;22.45;6.22;;;;;;;;;;5066204;28;20431;-53
2021/01/15 08:05:38;;;;;;;15.05;4.45;;;;;;;;;;5065745;28;20577;-50
2021/01/15 08:08:11;;;;;;;32.47;7.55;;;;;;;;;;5065723;28;20029;-50
2021/01/15 08:10:44;;;;;;;44.85;11.68;;;;;;;;;;5066697;28;20555;-52
2021/01/15 08:13:37;;;;;;;43.28;10.13;;;;;;;;;;5066122;28;20056;-51
2021/01/15 08:16:05;;;;;;;23.42;7.18;;;;;;;;;;5063495;28;20067;-50
2021/01/15 08:18:31;;;;;;;18.20;5.25;;;;;;;;;;5064552;28;20436;-51
2021/01/15 08:20:58;;;;;;;16.83;4.88;;;;;;;;;;5065939;28;20090;-53
2021/01/15 08:23:25;;;;;;;13.45;4.70;;;;;;;;;;5066043;28;20028;-50
2021/01/15 08:25:54;;;;;;;18.38;6.50;;;;;;;;;;5065087;28;20028;-51
2021/01/15 08:28:21;;;;;;;12.18;5.50;;;;;;;;;;5064014;28;20059;-53
2021/01/15 08:30:57;;;;;;;10.85;5.22;;;;;;;;;;5065002;28;20033;-50
2021/01/15 08:33:23;;;;;;;11.07;5.30;;;;;;;;;;5062463;28;20676;-53
2021/01/15 08:35:56;;;;;;;17.85;7.53;;;;;;;;;;5055549;28;20029;-52
2021/01/15 08:38:29;;;;;;;21.50;8.55;;;;;;;;;;5062790;28;20033;-53
2021/01/15 08:40:56;;;;;;;19.73;8.23;;;;;;;;;;5045740;28;20060;-52
2021/01/15 08:43:23;;;;;;;17.88;8.05;;;;;;;;;;5054121;28;20020;-53
2021/01/15 08:45:49;;;;;;;20.10;9.02;;;;;;;;;;5062873;28;20032;-51
2021/01/15 08:48:15;;;;;;;16.90;8.02;;;;;;;;;;5064849;28;20039;-51
2021/01/15 08:50:41;;;;;;;12.02;6.32;;;;;;;;;;5065808;28;20386;-52
2021/01/15 08:53:10;;;;;;;13.70;6.63;;;;;;;;;;5066269;28;20036;-51
2021/01/15 08:55:37;;;;;;;11.38;5.45;;;;;;;;;;5065348;28;20490;-53
2021/01/15 08:58:07;;;;;;;11.15;5.05;;;;;;;;;;5063836;28;20028;-53
2021/01/15 09:00:34;;;;;;;7.25;4.20;;;;;;;;;;5065556;28;20585;-51
2021/01/15 09:03:03;;;;;;;6.63;3.78;;;;;;;;;;5063581;28;20397;-52
2021/01/15 09:05:31;;;;;;;6.05;3.60;;;;;;;;;;5065414;28;20064;-51
2021/01/15 09:08:00;;;;;;;6.03;3.22;;;;;;;;;;5063708;28;20025;-50
2021/01/15 09:10:27;;;;;;;4.95;3.05;;;;;;;;;;5065484;28;20029;-52
2021/01/15 09:12:54;;;;;;;5.07;2.80;;;;;;;;;;5063476;28;20216;-52
2021/01/15 09:15:22;;;;;;;2.85;1.67;;;;;;;;;;5064619;28;20029;-53
2021/01/15 09:17:49;;;;;;;3.45;2.10;;;;;;;;;;5064345;28;20078;-53
2021/01/15 09:20:16;;;;;;;5.13;2.88;;;;;;;;;;5065726;28;20037;-54
2021/01/15 09:22:43;;;;;;;2.65;1.67;;;;;;;;;;5064972;28;20024;-52
2021/01/15 09:25:09;;;;;;;2.42;1.67;;;;;;;;;;5064967;28;20029;-50
2021/01/15 09:27:36;;;;;;;4.10;2.20;;;;;;;;;;5064347;28;20025;-51
2021/01/15 09:30:03;;;;;;;2.03;1.27;;;;;;;;;;5064319;28;20056;-51
2021/01/15 09:32:29;;;;;;;1.67;1.20;;;;;;;;;;5064412;28;20024;-53
2021/01/15 09:34:55;;;;;;;1.45;0.80;;;;;;;;;;5062818;28;20552;-51
2021/01/15 09:37:21;;;;;;;1.50;1.00;;;;;;;;;;5062540;28;20029;-52
2021/01/15 09:39:47;;;;;;;5.55;1.90;;;;;;;;;;5064363;28;20047;-54
2021/01/15 09:42:14;;;;;;;2.00;1.10;;;;;;;;;;5065786;28;20025;-49
2021/01/15 09:44:41;;;;;;;1.30;0.80;;;;;;;;;;5063798;28;20028;-50
2021/01/15 09:47:07;;;;;;;2.33;1.20;;;;;;;;;;5063663;28;20029;-52
2021/01/15 09:49:33;;;;;;;1.63;1.15;;;;;;;;;;5064292;28;20499;-50
2021/01/15 09:52:00;;;;;;;5.47;2.45;;;;;;;;;;5064645;28;20100;-51
2021/01/15 09:54:26;;;;;;;5.90;3.15;;;;;;;;;;5060356;28;20409;-49
2021/01/15 09:56:52;;;;;;;3.55;1.80;;;;;;;;;;5063371;28;20449;-51
2021/01/15 09:59:20;;;;;;;2.00;1.38;;;;;;;;;;5062194;28;20036;-51
2021/01/15 10:01:47;;;;;;;1.45;1.00;;;;;;;;;;5064488;28;20024;-53
2021/01/15 10:04:13;;;;;;;0.70;0.70;;;;;;;;;;5064146;28;20020;-50
2021/01/15 10:06:41;;;;;;;0.65;0.65;;;;;;;;;;5063729;28;20040;-51
2021/01/15 10:09:09;;;;;;;0.80;0.80;;;;;;;;;;5062566;28;20090;-52
2021/01/15 10:11:37;;;;;;;0.60;0.60;;;;;;;;;;5063573;28;20028;-52
2021/01/15 10:14:07;;;;;;;0.80;0.65;;;;;;;;;;5061861;28;20367;-53
2021/01/15 10:16:36;;;;;;;0.70;0.70;;;;;;;;;;5053191;28;20033;-50
2021/01/15 10:19:02;;;;;;;2.53;1.60;;;;;;;;;;5047255;28;20028;-53
2021/01/15 10:21:28;;;;;;;2.67;1.30;;;;;;;;;;5057756;28;20033;-54
2021/01/15 10:23:58;;;;;;;1.73;1.27;;;;;;;;;;5063103;28;20639;-50
2021/01/15 10:26:31;;;;;;;3.40;2.00;;;;;;;;;;5063491;28;20024;-50
2021/01/15 10:28:58;;;;;;;2.88;1.42;;;;;;;;;;5062610;28;20031;-51
2021/01/15 10:31:27;;;;;;;1.65;1.17;;;;;;;;;;5052837;28;20055;-49
2021/01/15 10:33:55;;;;;;;2.45;1.40;;;;;;;;;;5063046;28;20032;-52
2021/01/15 10:36:21;;;;;;;1.15;1.05;;;;;;;;;;5062622;28;20452;-49
2021/01/15 10:38:47;;;;;;;1.80;1.30;;;;;;;;;;5059634;28;20548;-52
2021/01/15 10:41:15;;;;;;;1.85;1.40;;;;;;;;;;5063541;28;20051;-52
2021/01/15 10:43:41;;;;;;;2.35;2.03;;;;;;;;;;5066848;28;20436;-51
2021/01/15 10:46:07;;;;;;;2.03;1.70;;;;;;;;;;5067656;28;20035;-53
2021/01/15 10:48:34;;;;;;;3.45;2.15;;;;;;;;;;5064960;28;20063;-50
2021/01/15 10:51:06;;;;;;;3.30;2.10;;;;;;;;;;5066724;28;20070;-50
2021/01/15 10:53:32;;;;;;;2.30;1.75;;;;;;;;;;5062524;28;20026;-51
2021/01/15 10:55:59;;;;;;;2.17;1.50;;;;;;;;;;5066623;28;20029;-53
2021/01/15 10:58:26;;;;;;;1.65;1.48;;;;;;;;;;5055074;28;20033;-50
2021/01/15 11:00:52;;;;;;;1.30;1.20;;;;;;;;;;5046939;28;20490;-50
2021/01/15 11:03:18;;;;;;;1.13;1.02;;;;;;;;;;5047001;28;20040;-53
2021/01/15 11:05:45;;;;;;;1.05;0.95;;;;;;;;;;5047638;28;20502;-52
2021/01/15 11:08:11;;;;;;;1.98;1.02;;;;;;;;;;5046552;28;20017;-51
2021/01/15 11:10:38;;;;;;;1.13;1.00;;;;;;;;;;5058837;28;20404;-52
2021/01/15 11:13:04;;;;;;;1.38;1.15;;;;;;;;;;5065557;28;20494;-52
2021/01/15 11:15:30;;;;;;;1.52;1.20;;;;;;;;;;5067110;28;20029;-50
2021/01/15 11:17:56;;;;;;;3.03;1.95;;;;;;;;;;5066145;28;20059;-53
2021/01/15 11:20:24;;;;;;;3.05;2.13;;;;;;;;;;5066963;28;20048;-52
2021/01/15 11:22:50;;;;;;;3.40;1.67;;;;;;;;;;5065557;28;20682;-53
2021/01/15 11:25:16;;;;;;;2.35;1.58;;;;;;;;;;5067221;28;20029;-51
2021/01/15 11:27:43;;;;;;;1.85;1.55;;;;;;;;;;5047263;28;20170;-53
2021/01/15 11:30:09;;;;;;;1.52;1.30;;;;;;;;;;5065175;28;20059;-50
2021/01/15 11:32:38;;;;;;;1.60;1.00;;;;;;;;;;5066469;28;20064;-51
2021/01/15 11:35:04;;;;;;;1.42;1.10;;;;;;;;;;5064641;28;20494;-52
2021/01/15 11:37:33;;;;;;;1.65;1.20;;;;;;;;;;5064862;28;20111;-52
2021/01/15 11:39:59;;;;;;;1.10;1.00;;;;;;;;;;5066209;28;20120;-50
2021/01/15 11:42:25;;;;;;;1.10;1.00;;;;;;;;;;5067245;28;20553;-51
2021/01/15 11:44:51;;;;;;;1.05;0.95;;;;;;;;;;5066835;28;20025;-50
2021/01/15 11:47:17;;;;;;;1.10;1.00;;;;;;;;;;5063453;28;20035;-52
2021/01/15 11:49:43;;;;;;;1.23;1.10;;;;;;;;;;5067123;28;20444;-52
2021/01/15 11:52:10;;;;;;;0.90;0.80;;;;;;;;;;5066960;28;20443;-52
2021/01/15 11:54:36;;;;;;;1.45;1.20;;;;;;;;;;5064834;28;20029;-50
2021/01/15 11:57:03;;;;;;;6.07;2.60;;;;;;;;;;5066414;28;20029;-52
2021/01/15 11:59:29;;;;;;;4.97;2.70;;;;;;;;;;5065638;28;20063;-50
2021/01/15 12:01:56;;;;;;;5.88;2.65;;;;;;;;;;5066522;28;20048;-50
2021/01/15 12:04:23;;;;;;;8.70;3.65;;;;;;;;;;5066147;28;20016;-52
2021/01/15 12:06:52;;;;;;;10.20;4.30;;;;;;;;;;5066682;28;20107;-51
2021/01/15 12:09:18;;;;;;;9.90;4.25;;;;;;;;;;5066313;28;20021;-52
2021/01/15 12:11:44;;;;;;;12.23;4.70;;;;;;;;;;5066948;28;20609;-52
2021/01/15 12:14:12;;;;;;;13.63;5.90;;;;;;;;;;5065866;28;20023;-51
2021/01/15 12:16:40;;;;;;;12.75;5.00;;;;;;;;;;5065978;28;20578;-53
2021/01/15 12:19:07;;;;;;;10.07;4.50;;;;;;;;;;5065871;28;20021;-53
2021/01/15 12:21:34;;;;;;;15.90;5.97;;;;;;;;;;5066554;28;20036;-52
2021/01/15 12:24:03;;;;;;;19.17;6.20;;;;;;;;;;5065671;28;20114;-52
2021/01/15 12:26:33;;;;;;;15.63;5.63;;;;;;;;;;5066252;28;20029;-50
2021/01/15 12:28:59;;;;;;;11.88;4.57;;;;;;;;;;5065356;28;20028;-50
2021/01/15 12:31:25;;;;;;;13.50;4.72;;;;;;;;;;5066474;28;20028;-50
2021/01/15 12:33:51;;;;;;;11.93;4.90;;;;;;;;;;5065744;28;20035;-54
2021/01/15 12:36:17;;;;;;;17.60;7.15;;;;;;;;;;5065775;28;20029;-54
2021/01/15 12:38:43;;;;;;;13.57;6.07;;;;;;;;;;5065783;28;20033;-51
2021/01/15 12:41:09;;;;;;;17.00;6.90;;;;;;;;;;5065680;28;20101;-51
2021/01/15 12:43:35;;;;;;;21.42;7.78;;;;;;;;;;5065306;28;20502;-53
2021/01/15 12:46:01;;;;;;;14.65;5.22;;;;;;;;;;5065741;28;20028;-53
2021/01/15 12:48:27;;;;;;;10.82;4.63;;;;;;;;;;5065062;28;20078;-53
2021/01/15 12:50:53;;;;;;;28.70;9.18;;;;;;;;;;5065487;28;20057;-51
2021/01/15 12:53:19;;;;;;;20.20;7.15;;;;;;;;;;5064764;28;20021;-50
2021/01/15 12:55:46;;;;;;;23.17;7.82;;;;;;;;;;5066221;28;20556;-52
2021/01/15 12:58:13;;;;;;;25.88;8.77;;;;;;;;;;5064120;28;20024;-51
2021/01/15 13:00:39;;;;;;;21.08;6.65;;;;;;;;;;5065650;28;20685;-51
2021/01/15 13:03:05;;;;;;;26.73;7.55;;;;;;;;;;5064116;28;20033;-50
2021/01/15 13:05:32;;;;;;;29.83;9.73;;;;;;;;;;5064330;28;20502;-52
2021/01/15 13:07:58;;;;;;;25.80;7.53;;;;;;;;;;5064000;28;20095;-50
2021/01/15 13:10:24;;;;;;;21.40;7.40;;;;;;;;;;5065485;28;20025;-49
2021/01/15 13:12:51;;;;;;;23.10;6.97;;;;;;;;;;5063314;28;20027;-50
2021/01/15 13:15:17;;;;;;;17.42;6.07;;;;;;;;;;5065841;28;20035;-52
2021/01/15 13:17:55;;;;;;;10.35;4.30;;;;;;;;;;5064967;28;20063;-50
2021/01/15 13:20:22;;;;;;;14.65;5.47;;;;;;;;;;5065240;28;20063;-51
2021/01/15 13:22:59;;;;;;;14.68;6.07;;;;;;;;;;5064484;28;20445;-51
2021/01/15 13:25:25;;;;;;;27.20;9.75;;;;;;;;;;5064714;28;20436;-52
2021/01/15 13:27:52;;;;;;;25.05;8.80;;;;;;;;;;5063698;28;20147;-52
2021/01/15 13:30:20;;;;;;;19.73;7.47;;;;;;;;;;5065155;28;20028;-53
2021/01/15 13:32:46;;;;;;;19.58;7.13;;;;;;;;;;5063961;28;20090;-52
2021/01/15 13:35:13;;;;;;;18.65;6.30;;;;;;;;;;5064300;28;20093;-53
2021/01/15 13:37:40;;;;;;;23.02;7.82;;;;;;;;;;5063727;28;20043;-51
2021/01/15 13:40:10;;;;;;;22.23;8.48;;;;;;;;;;5064798;28;20032;-51
2021/01/15 13:42:36;;;;;;;25.08;9.05;;;;;;;;;;5064025;28;20040;-52
2021/01/15 13:45:04;;;;;;;22.17;7.93;;;;;;;;;;5064728;28;20059;-50
2021/01/15 13:47:30;;;;;;;14.77;5.85;;;;;;;;;;5064505;28;20135;-50
2021/01/15 13:49:56;;;;;;;12.25;5.43;;;;;;;;;;5063984;28;20678;-50
2021/01/15 13:52:23;;;;;;;10.18;4.63;;;;;;;;;;5064304;28;20025;-51
2021/01/15 13:54:49;;;;;;;6.78;3.55;;;;;;;;;;5064007;28;20452;-50
2021/01/15 13:57:16;;;;;;;5.78;3.15;;;;;;;;;;5064719;28;20032;-50
2021/01/15 13:59:42;;;;;;;5.82;3.22;;;;;;;;;;5063556;28;20016;-50
2021/01/15 14:02:08;;;;;;;4.22;2.40;;;;;;;;;;5064398;28;20031;-51
2021/01/15 14:04:34;;;;;;;15.38;5.50;;;;;;;;;;5063867;28;20402;-53
2021/01/15 14:07:00;;;;;;;15.27;5.88;;;;;;;;;;5063793;28;20093;-51
2021/01/15 14:09:27;;;;;;;12.85;4.80;;;;;;;;;;5065336;28;20127;-50
2021/01/15 14:11:54;;;;;;;9.70;3.80;;;;;;;;;;5063655;28;20544;-54
2021/01/15 14:14:22;;;;;;;8.23;3.42;;;;;;;;;;5062380;28;20136;-50
2021/01/15 14:16:52;;;;;;;8.88;3.90;;;;;;;;;;5063061;28;20030;-51
2021/01/15 14:19:18;;;;;;;6.15;2.75;;;;;;;;;;5063797;28;20498;-51
2021/01/15 14:21:44;;;;;;;4.30;2.40;;;;;;;;;;5064057;28;20036;-50
2021/01/15 14:24:10;;;;;;;4.82;2.90;;;;;;;;;;5061921;28;20072;-50
2021/01/15 14:26:40;;;;;;;2.30;1.80;;;;;;;;;;5063856;28;20028;-50
2021/01/15 14:29:06;;;;;;;1.65;1.35;;;;;;;;;;5063070;28;20486;-50
2021/01/15 14:31:39;;;;;;;3.03;2.13;;;;;;;;;;5064489;28;20490;-49
2021/01/15 14:34:08;;;;;;;2.85;1.98;;;;;;;;;;5062817;28;20517;-49
2021/01/15 14:36:52;;;;;;;2.33;1.80;;;;;;;;;;5062004;28;20043;-52
2021/01/15 14:39:18;;;;;;;1.83;1.63;;;;;;;;;;5059335;28;20102;-52
2021/01/15 14:41:45;;;;;;;2.38;1.80;;;;;;;;;;5058870;28;20048;-54
2021/01/15 14:44:12;;;;;;;1.92;1.60;;;;;;;;;;5053555;28;20028;-53
2021/01/15 14:46:38;;;;;;;1.80;1.48;;;;;;;;;;5063696;28;21020;-52
2021/01/15 14:49:05;;;;;;;2.42;1.40;;;;;;;;;;5053232;28;20036;-52